Batesville, IN

11:37 AM EDT on October 30, 2014 (GMT -0400)
KINBATES2 | Change Station
CLOSE
Current Station
Personal Weather Station
Location: Batesville, IN
Elevation: 974 ft
Nearby Weather Stations

Elev 974 ft 39.29 °N, 85.23 °W | Updated 11 minutes ago

Clear
Clear
48.6 °F
Feels Like 49 °F
N
0.0
Wind Variable Wind from North
Gusts 3.0 mph

Today
High -- | Low -- °F
--% Chance of Precip.
Yesterday
High -- | Low -- °F
Precip. -- in
8:06 AM 6:41 PM
Waxing Crescent, 45% visible
Pressure 30.16 in
Visibility 10.0 miles
Clouds Few 2600 ft
Windchill 49 °F
Dew Point 36 °F
Humidity 62%
Rainfall 0.00 in
Snow Depth Not available.
UV 2 out of 12
Pollen .10 out of 12
Air Quality Not available.
Flu Activity Not available.
METAR KCVG 301452Z 00000KT 10SM FEW026 09/02 A3016

More Conditions Fewer Conditions

Pressure 30.16 in
Visibility 10.0 miles
Clouds Few 2600 ft
Windchill 49 °F
Dew Point 36 °F
Humidity 62%
Rainfall 0.00 in
Snow Depth Not available.
UV 2 out of 12
Pollen .10 out of 12
Air Quality Not available.
Flu Activity Not available.
METAR KCVG 301452Z 00000KT 10SM FEW026 09/02 A3016

More Conditions Fewer Conditions

10-Day Weather Forecast

Almanac

Astronomy

Oct. 30, 2014 Rise Set
Actual Time
Civil Twilight
Nautical Twilight
Astronomical Twilight
Moon
Length of Visible Light
Length of Day
Tomorrow will be .
, % of the Moon is Illuminated

Today's Extremes

State Highs State Lows

Community

WunderPhotos

Upload Photos

1,766,387 photos uploaded!

WunderBlogs® & News

Nearby

Air Quality

  Air Quality AQ Index Pollutant
Not available.

Snow Depth

Station Depth Elevation

Earthquake Activity

City Distance Mag. Time & Date
Minimum magnitude displayed is 2.5.

Coastal Water Temperatures

Place Temperature

Nearby Weather Stations